createdAt,value
2022-12-14T00:01:49.233Z,95.12
2022-12-14T00:04:16.458Z,95.14
2022-12-14T00:06:42.941Z,95.15
2022-12-14T00:09:12.553Z,95.17
2022-12-14T00:11:39.009Z,95.26
2022-12-14T00:14:05.703Z,95.10
2022-12-14T00:16:35.457Z,95.38
2022-12-14T00:19:02.515Z,96.42
2022-12-14T00:21:32.222Z,96.69
2022-12-14T00:24:00.314Z,96.37
2022-12-14T00:26:30.997Z,96.88
2022-12-14T00:28:58.599Z,97.03
2022-12-14T00:31:25.577Z,97.46
2022-12-14T00:33:53.314Z,97.58
2022-12-14T00:36:19.939Z,97.46
2022-12-14T00:38:46.383Z,97.48
2022-12-14T00:41:13.369Z,97.22
2022-12-14T00:43:40.899Z,97.38
2022-12-14T00:46:07.696Z,96.57
2022-12-14T00:48:38.361Z,96.52
2022-12-14T00:51:06.510Z,96.05
2022-12-14T00:53:32.953Z,96.05
2022-12-14T00:56:08.163Z,95.90
2022-12-14T00:58:38.105Z,95.94
2022-12-14T01:01:07.182Z,95.14
2022-12-14T01:03:34.731Z,94.75
2022-12-14T01:06:01.795Z,95.10
2022-12-14T01:08:35.369Z,95.35
2022-12-14T01:11:13.392Z,94.93
2022-12-14T01:13:49.131Z,95.11
2022-12-14T01:16:16.391Z,95.09
2022-12-14T01:18:43.473Z,94.98
2022-12-14T01:21:25.932Z,95.29
2022-12-14T01:23:58.075Z,95.33
2022-12-14T01:26:26.213Z,95.19
2022-12-14T01:28:56.332Z,95.42
2022-12-14T01:31:29.000Z,95.46
2022-12-14T01:33:56.078Z,95.27
2022-12-14T01:36:33.749Z,95.16
2022-12-14T01:39:04.936Z,95.43
2022-12-14T01:41:37.258Z,95.48
2022-12-14T01:44:23.611Z,95.49
2022-12-14T01:46:53.584Z,95.23
2022-12-14T01:49:31.081Z,95.16
2022-12-14T01:52:29.137Z,95.21
2022-12-14T01:55:15.863Z,95.32
2022-12-14T01:57:51.650Z,95.34
2022-12-14T02:00:18.189Z,95.38
2022-12-14T02:02:54.327Z,95.29
2022-12-14T02:05:22.439Z,95.42
2022-12-14T02:07:51.680Z,95.38
2022-12-14T02:10:21.888Z,95.28
2022-12-14T02:12:54.599Z,95.10
2022-12-14T02:15:21.301Z,95.20
2022-12-14T02:17:48.505Z,95.17
2022-12-14T02:20:21.413Z,95.42
2022-12-14T02:23:14.182Z,95.40
2022-12-14T02:25:43.486Z,95.36
2022-12-14T02:28:27.227Z,95.65
2022-12-14T02:31:04.595Z,95.33
2022-12-14T02:33:44.959Z,95.10
2022-12-14T02:36:31.282Z,95.23
2022-12-14T02:39:16.011Z,95.04
2022-12-14T02:42:03.256Z,94.97
2022-12-14T02:45:01.749Z,95.72
2022-12-14T02:47:54.557Z,95.88
2022-12-14T02:50:39.992Z,95.51
2022-12-14T02:53:21.661Z,95.64
2022-12-14T02:55:53.204Z,95.87
2022-12-14T02:58:28.457Z,96.10
2022-12-14T03:00:56.299Z,95.95
2022-12-14T03:03:26.647Z,96.05
2022-12-14T03:06:14.475Z,96.28
2022-12-14T03:08:45.735Z,96.30
2022-12-14T03:11:19.439Z,96.54
2022-12-14T03:14:04.671Z,96.19
2022-12-14T03:16:39.133Z,95.95
2022-12-14T03:19:29.076Z,95.72
2022-12-14T03:22:00.297Z,95.87
2022-12-14T03:24:39.208Z,95.98
2022-12-14T03:27:16.701Z,96.14
2022-12-14T03:29:48.752Z,96.06
2022-12-14T03:32:23.415Z,95.90
2022-12-14T03:34:55.879Z,95.84
2022-12-14T03:37:38.375Z,95.88
2022-12-14T03:40:09.130Z,96.16
2022-12-14T03:42:42.070Z,95.86
2022-12-14T03:45:23.700Z,96.15
2022-12-14T03:48:04.236Z,96.22
2022-12-14T03:50:43.142Z,96.15
2022-12-14T03:53:12.703Z,95.80
2022-12-14T03:55:46.422Z,95.97
2022-12-14T03:58:42.658Z,96.20
2022-12-14T04:01:27.454Z,96.38
2022-12-14T04:04:04.262Z,96.55
2022-12-14T04:06:49.732Z,96.03
2022-12-14T04:09:22.243Z,96.60
2022-12-14T04:12:14.896Z,96.26
2022-12-14T04:15:08.726Z,96.21
2022-12-14T04:17:57.070Z,96.53
2022-12-14T04:20:28.743Z,96.51
2022-12-14T04:23:09.855Z,96.01
2022-12-14T04:26:01.562Z,96.09
2022-12-14T04:28:56.683Z,95.79
2022-12-14T04:31:28.553Z,96.02
2022-12-14T04:33:59.418Z,95.71
2022-12-14T04:36:33.778Z,95.69
2022-12-14T04:39:09.250Z,95.91
2022-12-14T04:41:42.989Z,95.43
2022-12-14T04:44:24.812Z,95.24
2022-12-14T04:46:52.972Z,95.27
2022-12-14T04:49:40.625Z,95.61
2022-12-14T04:52:33.892Z,95.19
2022-12-14T04:55:06.740Z,95.44
2022-12-14T04:57:48.312Z,95.77
2022-12-14T05:00:15.619Z,96.05
2022-12-14T05:03:19.528Z,96.17
2022-12-14T05:06:11.041Z,95.92
2022-12-14T05:09:05.015Z,95.74
2022-12-14T05:11:53.064Z,95.69
2022-12-14T05:14:26.774Z,95.76
2022-12-14T05:16:53.645Z,96.01
2022-12-14T05:19:20.329Z,95.91
2022-12-14T05:21:49.708Z,95.75
2022-12-14T05:24:17.191Z,95.68
2022-12-14T05:26:44.524Z,95.91
2022-12-14T05:29:11.649Z,95.49
2022-12-14T05:31:38.434Z,95.81
2022-12-14T05:34:04.942Z,95.76
2022-12-14T05:36:31.428Z,95.48
2022-12-14T05:38:57.932Z,95.94
2022-12-14T05:41:24.497Z,95.42
2022-12-14T05:43:50.978Z,95.75
2022-12-14T05:46:18.491Z,95.51
2022-12-14T05:48:49.189Z,95.82
2022-12-14T05:51:16.510Z,95.83
2022-12-14T05:53:43.511Z,95.76
2022-12-14T05:56:11.052Z,95.88
2022-12-14T05:58:38.643Z,95.56
2022-12-14T06:01:09.778Z,95.69
2022-12-14T06:03:39.148Z,95.39
2022-12-14T06:06:08.631Z,95.50
2022-12-14T06:08:37.348Z,95.78
2022-12-14T06:11:23.454Z,95.53
2022-12-14T06:13:50.216Z,95.47
2022-12-14T06:16:22.849Z,95.21
2022-12-14T06:18:54.769Z,95.71
2022-12-14T06:21:25.539Z,95.30
2022-12-14T06:23:52.100Z,95.30
2022-12-14T06:26:18.888Z,95.33
2022-12-14T06:28:45.582Z,95.22
2022-12-14T06:31:19.371Z,95.48
2022-12-14T06:33:46.568Z,95.30
2022-12-14T06:36:17.735Z,95.08
2022-12-14T06:38:44.480Z,95.23
2022-12-14T06:41:12.420Z,95.22
2022-12-14T06:43:38.975Z,95.25
2022-12-14T06:46:15.757Z,95.20
2022-12-14T06:48:42.825Z,94.94
2022-12-14T06:51:09.838Z,95.21
2022-12-14T06:53:36.511Z,95.28
2022-12-14T06:56:10.492Z,95.27
2022-12-14T06:58:37.210Z,95.00
2022-12-14T07:01:13.469Z,94.78
2022-12-14T07:03:41.375Z,94.91
2022-12-14T07:06:08.222Z,94.84
2022-12-14T07:08:37.480Z,95.01
2022-12-14T07:11:06.755Z,94.75
2022-12-14T07:13:34.139Z,94.82
2022-12-14T07:16:01.914Z,94.28
2022-12-14T07:18:31.581Z,94.59
2022-12-14T07:21:00.664Z,94.86
2022-12-14T07:23:29.680Z,94.79
2022-12-14T07:26:27.465Z,94.18
2022-12-14T07:28:54.639Z,94.44
2022-12-14T07:31:24.160Z,94.33
2022-12-14T07:33:55.808Z,94.40
2022-12-14T07:36:23.891Z,94.27
2022-12-14T07:38:51.583Z,94.12
2022-12-14T07:41:24.574Z,94.52
2022-12-14T07:43:53.509Z,94.54
2022-12-14T07:46:24.596Z,94.54
2022-12-14T07:48:53.435Z,93.78
2022-12-14T07:51:22.420Z,94.43
2022-12-14T07:53:50.159Z,93.59
2022-12-14T07:56:22.299Z,93.75
2022-12-14T07:58:49.718Z,93.67
2022-12-14T08:01:18.842Z,94.18
2022-12-14T08:03:51.582Z,93.91
2022-12-14T08:06:19.887Z,94.15
2022-12-14T08:08:47.844Z,93.80
2022-12-14T08:11:16.474Z,93.95
2022-12-14T08:13:43.383Z,94.11
2022-12-14T08:16:12.907Z,93.82
2022-12-14T08:18:40.006Z,93.60
2022-12-14T08:21:08.466Z,93.09
2022-12-14T08:23:35.511Z,92.15
2022-12-14T08:26:03.809Z,92.27
2022-12-14T08:28:31.959Z,92.25
2022-12-14T08:31:04.411Z,92.12
2022-12-14T08:33:31.549Z,90.60
2022-12-14T08:36:14.810Z,90.28
2022-12-14T08:38:41.828Z,90.67
2022-12-14T08:41:13.891Z,90.90
2022-12-14T08:43:41.403Z,90.99
2022-12-14T08:46:09.555Z,91.43
2022-12-14T08:48:38.230Z,91.36
2022-12-14T08:51:07.181Z,90.59
2022-12-14T08:53:34.547Z,90.44
2022-12-14T08:56:10.463Z,90.36
2022-12-14T08:58:38.032Z,90.24
2022-12-14T09:01:13.880Z,89.79
2022-12-14T09:03:42.172Z,89.67
2022-12-14T09:06:11.269Z,89.57
2022-12-14T09:08:37.910Z,89.50
2022-12-14T09:11:05.681Z,89.62
2022-12-14T09:13:33.741Z,90.17
2022-12-14T09:16:06.897Z,90.47
2022-12-14T09:18:34.771Z,90.80
2022-12-14T09:21:01.637Z,90.71
2022-12-14T09:23:30.503Z,90.22
2022-12-14T09:26:16.603Z,89.79
2022-12-14T09:28:46.600Z,89.82
2022-12-14T09:31:15.841Z,90.24
2022-12-14T09:33:42.728Z,90.24
2022-12-14T09:36:18.983Z,90.84
2022-12-14T09:38:51.141Z,91.30
2022-12-14T09:41:30.293Z,90.66
2022-12-14T09:44:18.824Z,90.69
2022-12-14T09:47:17.852Z,90.08
2022-12-14T09:49:54.353Z,90.40
2022-12-14T09:52:29.888Z,90.44
2022-12-14T09:54:58.438Z,90.67
2022-12-14T09:57:34.457Z,90.72
2022-12-14T10:00:01.099Z,91.28
2022-12-14T10:02:52.048Z,91.68
2022-12-14T10:05:42.921Z,91.69
2022-12-14T10:08:25.983Z,91.11
2022-12-14T10:11:22.001Z,91.29
2022-12-14T10:13:55.838Z,91.61
2022-12-14T10:16:35.223Z,91.87
2022-12-14T10:19:20.494Z,92.09
2022-12-14T10:21:55.846Z,92.29
2022-12-14T10:24:27.349Z,92.47
2022-12-14T10:26:55.666Z,92.40
2022-12-14T10:29:26.328Z,91.85
2022-12-14T10:32:03.580Z,92.19
2022-12-14T10:34:32.479Z,90.94
2022-12-14T10:37:23.609Z,91.32
2022-12-14T10:40:17.560Z,91.62
2022-12-14T10:43:15.261Z,92.31
2022-12-14T10:46:20.107Z,92.49
2022-12-14T10:48:56.934Z,92.21
2022-12-14T10:51:38.509Z,92.06
2022-12-14T10:54:25.409Z,91.93
2022-12-14T10:56:51.991Z,91.91
2022-12-14T10:59:18.489Z,91.77
2022-12-14T11:01:48.244Z,92.24
2022-12-14T11:04:33.883Z,92.58
2022-12-14T11:07:05.485Z,92.69
2022-12-14T11:09:32.294Z,92.58
2022-12-14T11:12:08.106Z,92.98
2022-12-14T11:14:36.774Z,92.84
2022-12-14T11:17:04.211Z,93.09
2022-12-14T11:19:30.933Z,93.37
2022-12-14T11:22:18.698Z,93.87
2022-12-14T11:24:48.826Z,94.09
2022-12-14T11:27:21.013Z,94.09
2022-12-14T11:29:50.476Z,94.17
2022-12-14T11:32:24.188Z,94.35
2022-12-14T11:34:57.443Z,94.49
2022-12-14T11:37:26.154Z,95.02
2022-12-14T11:39:56.295Z,95.30
2022-12-14T11:42:24.305Z,95.40
2022-12-14T11:44:54.128Z,95.62
2022-12-14T11:47:28.875Z,96.05
2022-12-14T11:49:57.896Z,96.00
2022-12-14T11:52:37.985Z,96.37
2022-12-14T11:55:14.486Z,96.20
2022-12-14T11:57:59.115Z,96.54
2022-12-14T12:00:46.829Z,96.85
2022-12-14T12:03:19.168Z,96.58
2022-12-14T12:05:46.541Z,96.48
2022-12-14T12:08:23.415Z,96.60
2022-12-14T12:10:51.747Z,96.55
2022-12-14T12:13:24.000Z,96.77
2022-12-14T12:15:55.020Z,96.86
2022-12-14T12:18:46.222Z,97.24
2022-12-14T12:21:22.603Z,97.17
2022-12-14T12:24:02.665Z,97.07
2022-12-14T12:26:34.474Z,96.75
2022-12-14T12:29:14.609Z,97.23
2022-12-14T12:31:48.857Z,97.00
2022-12-14T12:34:21.919Z,97.08
2022-12-14T12:37:24.771Z,97.14
2022-12-14T12:39:42.955Z,97.34
2022-12-14T12:42:22.745Z,97.53
2022-12-14T12:44:56.587Z,97.23
2022-12-14T12:47:46.557Z,97.53
2022-12-14T12:50:17.630Z,97.53
2022-12-14T12:53:04.293Z,97.86
2022-12-14T12:55:41.578Z,97.81
2022-12-14T12:58:18.895Z,97.65
2022-12-14T13:00:51.415Z,97.85
2022-12-14T13:03:32.342Z,97.75
2022-12-14T13:06:11.681Z,98.11
2022-12-14T13:08:42.021Z,98.17
2022-12-14T13:11:27.542Z,98.64
2022-12-14T13:13:59.923Z,98.54
2022-12-14T13:16:38.692Z,98.95
2022-12-14T13:22:24.693Z,99.41
2022-12-14T13:24:58.642Z,99.72
2022-12-14T13:27:25.945Z,100.00
2022-12-14T13:30:09.810Z,99.88
2022-12-14T13:33:23.710Z,99.80
2022-12-14T13:36:31.846Z,99.85
2022-12-14T13:39:20.843Z,100.00
2022-12-14T13:42:02.740Z,100.00
2022-12-14T13:44:47.936Z,100.00
2022-12-14T13:47:22.138Z,100.00
2022-12-14T13:50:35.012Z,100.00
2022-12-14T13:52:47.834Z,100.00
2022-12-14T13:55:39.001Z,100.00
2022-12-14T13:58:34.057Z,100.00
2022-12-14T14:01:07.009Z,100.00
2022-12-14T14:03:36.327Z,100.00
2022-12-14T14:06:14.827Z,100.00
2022-12-14T14:08:50.671Z,100.00
2022-12-14T14:11:39.332Z,100.00
2022-12-14T14:14:27.283Z,100.00
2022-12-14T14:16:59.393Z,100.00
2022-12-14T14:19:28.417Z,100.00
2022-12-14T14:22:27.878Z,100.00
2022-12-14T14:25:12.222Z,100.00
2022-12-14T14:27:42.020Z,100.00
2022-12-14T14:30:38.073Z,100.00
2022-12-14T14:33:45.382Z,100.00
2022-12-14T14:36:33.522Z,100.00
2022-12-14T14:39:55.417Z,100.00
2022-12-14T14:42:21.644Z,100.00
2022-12-14T14:45:11.297Z,100.00
2022-12-14T14:47:40.140Z,100.00
2022-12-14T14:50:15.684Z,100.00
2022-12-14T14:52:42.061Z,100.00
2022-12-14T14:55:52.690Z,100.00
2022-12-14T14:58:26.398Z,100.00
2022-12-14T15:01:08.085Z,100.00
2022-12-14T15:03:57.060Z,100.00
2022-12-14T15:06:36.994Z,100.00
2022-12-14T15:09:07.035Z,100.00
2022-12-14T15:11:45.300Z,100.00
2022-12-14T15:14:26.657Z,100.00
2022-12-14T15:16:53.255Z,100.00
2022-12-14T15:19:21.610Z,100.00
2022-12-14T15:21:54.263Z,100.00
2022-12-14T15:24:22.439Z,100.00
2022-12-14T15:26:50.528Z,99.87
2022-12-14T15:29:22.866Z,99.59
2022-12-14T15:31:59.017Z,100.00
2022-12-14T15:34:26.435Z,100.00
2022-12-14T15:36:53.731Z,100.00
2022-12-14T15:39:39.998Z,100.00
2022-12-14T15:42:16.938Z,100.00
2022-12-14T15:44:51.562Z,100.00
2022-12-14T15:47:29.811Z,100.00
2022-12-14T15:50:35.193Z,99.61
2022-12-14T15:53:13.594Z,99.85
2022-12-14T15:55:44.155Z,100.00
2022-12-14T15:58:31.952Z,99.97
2022-12-14T16:01:21.693Z,100.00
2022-12-14T16:03:52.900Z,99.77
2022-12-14T16:06:20.466Z,99.63
2022-12-14T16:09:05.047Z,99.21
2022-12-14T16:11:44.471Z,99.28
2022-12-14T16:14:24.292Z,99.18
2022-12-14T16:16:51.212Z,98.78
2022-12-14T16:19:28.353Z,98.56
2022-12-14T16:22:22.803Z,97.76
2022-12-14T16:25:08.460Z,98.19
2022-12-14T16:27:40.985Z,98.32
2022-12-14T16:30:23.434Z,97.96
2022-12-14T16:32:53.284Z,97.84
2022-12-14T16:35:26.324Z,97.81
2022-12-14T16:37:58.235Z,97.75
2022-12-14T16:40:32.632Z,97.86
2022-12-14T16:42:59.260Z,98.06
2022-12-14T16:45:46.084Z,97.48
2022-12-14T16:48:22.205Z,97.71
2022-12-14T16:51:01.337Z,97.65
2022-12-14T16:53:34.923Z,97.97
2022-12-14T16:56:07.409Z,98.12
2022-12-14T16:58:35.858Z,98.11
2022-12-14T17:01:06.297Z,97.77
2022-12-14T17:03:34.260Z,97.84
2022-12-14T17:06:06.431Z,97.63
2022-12-14T17:08:36.134Z,97.67
2022-12-14T17:11:03.299Z,97.19
2022-12-14T17:13:30.323Z,97.64
2022-12-14T17:16:06.526Z,97.75
2022-12-14T17:18:39.006Z,98.01
2022-12-14T17:21:07.384Z,97.21
2022-12-14T17:23:39.537Z,97.48
2022-12-14T17:26:06.068Z,97.38
2022-12-14T17:28:35.561Z,97.56
2022-12-14T17:31:03.163Z,97.80
2022-12-14T17:33:31.428Z,97.48
2022-12-14T17:36:10.494Z,97.58
2022-12-14T17:38:44.170Z,97.50
2022-12-14T17:41:24.191Z,97.63
2022-12-14T17:43:56.690Z,97.47
2022-12-14T17:46:25.107Z,97.38
2022-12-14T17:48:51.956Z,97.23
2022-12-14T17:51:25.321Z,96.80
2022-12-14T17:53:57.596Z,97.09
2022-12-14T17:56:24.897Z,97.19
2022-12-14T17:58:54.287Z,97.19
2022-12-14T18:01:25.931Z,96.90
2022-12-14T18:03:52.559Z,96.71
2022-12-14T18:06:19.236Z,97.39
2022-12-14T18:08:46.807Z,96.92
2022-12-14T18:11:19.095Z,96.77
2022-12-14T18:13:48.806Z,97.26
2022-12-14T18:16:20.832Z,96.92
2022-12-14T18:18:47.790Z,96.70
2022-12-14T18:21:19.224Z,96.87
2022-12-14T18:23:46.656Z,96.67
2022-12-14T18:26:20.765Z,96.41
2022-12-14T18:28:52.394Z,96.27
2022-12-14T18:31:29.231Z,96.09
2022-12-14T18:33:55.763Z,96.27
2022-12-14T18:36:26.061Z,96.50
2022-12-14T18:38:55.688Z,96.36
2022-12-14T18:41:24.464Z,96.56
2022-12-14T18:43:51.512Z,96.39
2022-12-14T18:46:18.107Z,95.98
2022-12-14T18:48:45.095Z,96.18
2022-12-14T18:51:32.030Z,96.04
2022-12-14T18:54:00.151Z,95.74
2022-12-14T18:56:28.166Z,95.88
2022-12-14T18:58:56.176Z,95.78
2022-12-14T19:01:24.679Z,95.35
2022-12-14T19:03:51.770Z,95.62
2022-12-14T19:06:43.687Z,95.38
2022-12-14T19:09:07.494Z,95.40
2022-12-14T19:11:40.043Z,95.24
2022-12-14T19:14:06.879Z,95.08
2022-12-14T19:16:33.501Z,94.93
2022-12-14T19:19:00.757Z,95.12
2022-12-14T19:21:29.356Z,94.68
2022-12-14T19:23:56.040Z,94.87
2022-12-14T19:26:22.698Z,94.80
2022-12-14T19:28:49.260Z,95.12
2022-12-14T19:31:15.799Z,95.01
2022-12-14T19:33:42.329Z,95.07
2022-12-14T19:36:09.563Z,95.18
2022-12-14T19:38:36.390Z,95.38
2022-12-14T19:41:13.462Z,94.80
2022-12-14T19:43:39.909Z,95.05
2022-12-14T19:46:07.715Z,94.37
2022-12-14T19:48:34.276Z,94.40
2022-12-14T19:51:11.652Z,94.48
2022-12-14T19:53:40.144Z,94.65
2022-12-14T19:56:07.374Z,94.40
2022-12-14T19:58:33.879Z,94.78
2022-12-14T20:01:00.808Z,94.86
2022-12-14T20:03:28.120Z,94.78
2022-12-14T20:05:58.718Z,94.80
2022-12-14T20:08:27.043Z,94.92
2022-12-14T20:10:53.731Z,95.21
2022-12-14T20:13:25.379Z,95.14
2022-12-14T20:16:15.550Z,94.93
2022-12-14T20:18:53.042Z,95.00
2022-12-14T20:21:22.409Z,95.05
2022-12-14T20:23:49.262Z,94.98
2022-12-14T20:26:18.870Z,95.03
2022-12-14T20:28:53.948Z,95.22
2022-12-14T20:31:22.210Z,95.24
2022-12-14T20:33:49.826Z,95.14
2022-12-14T20:36:18.561Z,95.45
2022-12-14T20:38:53.670Z,95.25
2022-12-14T20:41:20.099Z,95.50
2022-12-14T20:43:46.655Z,95.57
2022-12-14T20:46:36.071Z,95.77
2022-12-14T20:49:09.199Z,96.00
2022-12-14T20:51:37.556Z,96.12
2022-12-14T20:54:06.599Z,96.14
2022-12-14T20:56:35.444Z,96.07
2022-12-14T20:59:03.130Z,95.87
2022-12-14T21:01:29.974Z,95.92
2022-12-14T21:04:00.586Z,95.65
2022-12-14T21:06:27.126Z,95.68
2022-12-14T21:09:05.365Z,95.85
2022-12-14T21:11:52.479Z,95.52
2022-12-14T21:14:36.498Z,95.61
2022-12-14T21:17:06.887Z,95.70
2022-12-14T21:19:36.185Z,95.22
2022-12-14T21:22:07.117Z,95.24
2022-12-14T21:25:07.509Z,95.54
2022-12-14T21:27:26.911Z,95.06
2022-12-14T21:29:54.229Z,95.21
2022-12-14T21:32:22.232Z,95.18
2022-12-14T21:34:49.495Z,94.47
2022-12-14T21:37:16.135Z,94.84
2022-12-14T21:39:46.319Z,94.36
2022-12-14T21:42:20.477Z,94.71
2022-12-14T21:44:49.417Z,94.45
2022-12-14T21:47:19.016Z,94.56
2022-12-14T21:49:47.496Z,94.56
2022-12-14T21:52:16.095Z,94.35
2022-12-14T21:54:47.526Z,94.77
2022-12-14T21:57:41.964Z,94.79
2022-12-14T22:00:10.079Z,94.90
2022-12-14T22:02:36.646Z,95.30
2022-12-14T22:05:03.742Z,95.47
2022-12-14T22:07:32.907Z,95.53
2022-12-14T22:09:59.404Z,95.46
2022-12-14T22:12:26.105Z,95.49
2022-12-14T22:14:52.667Z,95.29
2022-12-14T22:17:19.343Z,95.49
2022-12-14T22:19:45.989Z,95.20
2022-12-14T22:22:18.421Z,95.49
2022-12-14T22:24:51.257Z,95.55
2022-12-14T22:27:18.995Z,95.72
2022-12-14T22:29:45.497Z,95.69
2022-12-14T22:32:12.492Z,95.37
2022-12-14T22:34:42.010Z,95.36
2022-12-14T22:37:13.243Z,95.48
2022-12-14T22:39:42.937Z,95.14
2022-12-14T22:42:09.825Z,94.92
2022-12-14T22:44:36.258Z,95.14
2022-12-14T22:47:02.771Z,94.74
2022-12-14T22:49:29.242Z,94.74
2022-12-14T22:51:56.474Z,94.94
2022-12-14T22:54:25.967Z,94.58
2022-12-14T22:57:13.776Z,94.73
2022-12-14T22:59:58.093Z,94.60
2022-12-14T23:02:25.110Z,94.70
2022-12-14T23:04:51.827Z,94.54
2022-12-14T23:07:18.370Z,94.63
2022-12-14T23:10:03.398Z,94.25
2022-12-14T23:12:48.555Z,94.38
2022-12-14T23:15:33.961Z,93.78
2022-12-14T23:18:20.849Z,93.64
2022-12-14T23:21:06.237Z,93.53
2022-12-14T23:23:58.872Z,92.98
2022-12-14T23:26:44.186Z,92.65
2022-12-14T23:29:29.461Z,92.28
2022-12-14T23:32:16.297Z,92.23
2022-12-14T23:35:00.969Z,92.22
2022-12-14T23:37:45.994Z,91.63
2022-12-14T23:40:30.789Z,91.59
2022-12-14T23:43:15.603Z,91.91
2022-12-14T23:46:04.980Z,91.88
2022-12-14T23:48:50.193Z,92.28
2022-12-14T23:51:35.231Z,92.33
2022-12-14T23:54:19.996Z,92.20
2022-12-14T23:57:08.224Z,92.46
2022-12-14T23:59:53.632Z,92.48
